createdAt,value
2023-04-03T06:18:44.668Z,1008.65
2023-04-03T06:18:57.401Z,1008.64
2023-04-03T06:19:05.745Z,1008.64
2023-04-03T06:19:16.535Z,1008.58
2023-04-03T06:19:26.084Z,1008.58
2023-04-03T06:19:36.282Z,1008.53
2023-04-03T06:19:46.336Z,1008.58
2023-04-03T06:20:06.589Z,1008.56
2023-04-03T06:20:16.749Z,1008.56
2023-04-03T06:20:26.888Z,1008.57
2023-04-03T06:20:37.924Z,1008.57
2023-04-03T06:20:47.296Z,1008.59
2023-04-03T06:20:57.406Z,1008.57
2023-04-03T06:21:07.367Z,1008.56
2023-04-03T06:21:17.492Z,1008.55
2023-04-03T06:21:27.626Z,1008.55
2023-04-03T06:21:37.844Z,1008.56
2023-04-03T06:21:47.986Z,1008.53
2023-04-03T06:21:58.106Z,1008.50
2023-04-03T06:22:08.159Z,1008.58
2023-04-03T06:22:18.392Z,1008.53
2023-04-03T06:22:28.557Z,1008.51
2023-04-03T06:22:38.630Z,1008.49
2023-04-03T06:22:48.630Z,1008.57
2023-04-03T06:22:59.366Z,1008.53
2023-04-03T06:23:09.079Z,1008.55
2023-04-03T06:23:19.222Z,1008.55
2023-04-03T06:23:29.237Z,1008.59
2023-04-03T06:23:39.461Z,1008.54
2023-04-03T06:23:49.383Z,1008.58
2023-04-03T06:23:59.590Z,1008.59
2023-04-03T06:24:09.774Z,1008.59
2023-04-03T06:24:19.837Z,1008.58
2023-04-03T06:24:30.040Z,1008.56
2023-04-03T06:24:40.162Z,1008.57
2023-04-03T06:24:50.203Z,1008.55
2023-04-03T06:25:00.364Z,1008.57
2023-04-03T06:25:10.397Z,1008.57
2023-04-03T06:25:20.522Z,1008.58
2023-04-03T06:25:30.557Z,1008.56
2023-04-03T06:25:40.841Z,1008.54
2023-04-03T06:25:50.782Z,1008.51
2023-04-03T06:26:01.025Z,1008.52
2023-04-03T06:26:11.047Z,1008.55
2023-04-03T06:26:21.098Z,1008.59
2023-04-03T06:26:31.187Z,1008.63
2023-04-03T06:26:41.372Z,1008.61
2023-04-03T06:26:51.535Z,1008.59
2023-04-03T06:27:01.665Z,1008.58
2023-04-03T06:27:11.771Z,1008.62
2023-04-03T06:27:21.849Z,1008.54
2023-04-03T06:27:32.007Z,1008.58
2023-04-03T06:27:42.132Z,1008.55
2023-04-03T06:27:52.338Z,1008.56
2023-04-03T06:28:02.472Z,1008.62
2023-04-03T06:28:12.599Z,1008.61
2023-04-03T06:28:22.719Z,1008.55
2023-04-03T06:28:32.814Z,1008.56
2023-04-03T06:28:42.915Z,1008.56
2023-04-03T06:28:52.990Z,1008.52
2023-04-03T06:29:03.193Z,1008.52
2023-04-03T06:29:13.385Z,1008.55
2023-04-03T06:29:23.374Z,1008.53
2023-04-03T06:29:33.583Z,1008.55
2023-04-03T06:29:43.642Z,1008.54
2023-04-03T06:29:53.864Z,1008.52
2023-04-03T06:30:03.947Z,1008.53
2023-04-03T06:30:14.123Z,1008.50
2023-04-03T06:30:24.167Z,1008.49
2023-04-03T06:30:34.268Z,1008.48
2023-04-03T06:30:44.414Z,1008.50
2023-04-03T06:30:54.542Z,1008.50
2023-04-03T06:31:04.710Z,1008.48
2023-04-03T06:31:14.788Z,1008.46
2023-04-03T06:31:25.033Z,1008.49
2023-04-03T06:31:35.086Z,1008.45
2023-04-03T06:31:45.217Z,1008.44
2023-04-03T06:31:55.299Z,1008.46
2023-04-03T06:32:05.582Z,1008.50
2023-04-03T06:32:15.558Z,1008.45
2023-04-03T06:32:25.795Z,1008.45
2023-04-03T06:32:35.780Z,1008.45
2023-04-03T06:32:46.180Z,1008.45
2023-04-03T06:32:56.052Z,1008.43
2023-04-03T06:33:06.264Z,1008.45
2023-04-03T06:33:16.334Z,1008.41
2023-04-03T06:33:26.504Z,1008.41
2023-04-03T06:33:36.579Z,1008.45
2023-04-03T06:33:46.633Z,1008.41
2023-04-03T06:33:56.922Z,1008.43
2023-04-03T06:34:09.223Z,1008.43
2023-04-03T06:34:18.118Z,1008.41
2023-04-03T06:34:27.201Z,1008.40
2023-04-03T06:34:37.283Z,1008.42
2023-04-03T06:34:47.483Z,1008.40
2023-04-03T06:34:57.591Z,1008.39
2023-04-03T06:35:07.683Z,1008.42
2023-04-03T06:35:27.858Z,1008.42
2023-04-03T06:35:38.159Z,1008.44
2023-04-03T06:35:48.199Z,1008.42
2023-04-03T06:35:58.214Z,1008.43
2023-04-03T06:36:08.372Z,1008.41
2023-04-03T06:36:18.493Z,1008.41
2023-04-03T06:36:28.791Z,1008.38
2023-04-03T06:36:40.990Z,1008.39
2023-04-03T06:36:49.916Z,1008.41
2023-04-03T06:36:59.965Z,1008.38
2023-04-03T06:37:09.286Z,1008.37
2023-04-03T06:37:20.803Z,1008.35
2023-04-03T06:37:29.628Z,1008.37
2023-04-03T06:37:49.743Z,1008.33
2023-04-03T06:37:59.838Z,1008.35
2023-04-03T06:38:09.922Z,1008.38
2023-04-03T06:38:20.160Z,1008.31
2023-04-03T06:38:31.011Z,1008.33
2023-04-03T06:38:40.464Z,1008.34
2023-04-03T06:38:50.406Z,1008.32
2023-04-03T06:39:00.498Z,1008.35
2023-04-03T06:39:12.541Z,1008.29
2023-04-03T06:39:21.014Z,1008.31
2023-04-03T06:39:31.149Z,1008.34
2023-04-03T06:39:42.404Z,1008.31
2023-04-03T06:39:51.211Z,1008.33
2023-04-03T06:40:01.281Z,1008.32
2023-04-03T06:40:21.558Z,1008.30
2023-04-03T06:40:31.673Z,1008.32
2023-04-03T06:40:41.745Z,1008.30
2023-04-03T06:40:52.024Z,1008.32
2023-04-03T06:41:01.998Z,1008.30
2023-04-03T06:41:12.271Z,1008.32
2023-04-03T06:41:22.290Z,1008.31
2023-04-03T06:41:32.367Z,1008.35
2023-04-03T06:41:42.491Z,1008.29
2023-04-03T06:41:52.724Z,1008.27
2023-04-03T06:42:02.706Z,1008.31
2023-04-03T06:42:12.906Z,1008.31
2023-04-03T06:42:23.104Z,1008.32
2023-04-03T06:42:33.132Z,1008.27
2023-04-03T06:42:43.200Z,1008.25
2023-04-03T06:42:53.514Z,1008.26
2023-04-03T06:43:03.455Z,1008.21
2023-04-03T06:43:13.703Z,1008.25
2023-04-03T06:43:24.567Z,1008.24
2023-04-03T06:43:34.774Z,1008.19
2023-04-03T06:43:43.959Z,1008.19
2023-04-03T06:43:54.163Z,1008.22
2023-04-03T06:44:04.384Z,1008.13
2023-04-03T06:44:14.466Z,1008.19
2023-04-03T06:44:24.444Z,1008.17
2023-04-03T06:44:34.757Z,1008.16
2023-04-03T06:44:44.755Z,1008.09
2023-04-03T06:44:55.018Z,1008.10
2023-04-03T06:45:04.881Z,1008.14
2023-04-03T06:45:15.092Z,1008.12
2023-04-03T06:45:25.264Z,1008.10
2023-04-03T06:45:35.397Z,1008.10
2023-04-03T06:45:45.453Z,1008.06
2023-04-03T06:45:55.689Z,1008.14
2023-04-03T06:46:05.770Z,1008.10
2023-04-03T06:46:16.335Z,1008.05
2023-04-03T06:46:26.036Z,1008.10
2023-04-03T06:46:36.210Z,1008.05
2023-04-03T06:46:46.288Z,1008.06
2023-04-03T06:46:56.490Z,1008.03
2023-04-03T06:47:06.576Z,1008.03
2023-04-03T06:47:16.716Z,1008.06
2023-04-03T06:47:26.946Z,1008.03
2023-04-03T06:47:36.927Z,1008.03
2023-04-03T06:47:46.992Z,1008.07
2023-04-03T06:47:57.303Z,1008.09
2023-04-03T06:48:07.383Z,1008.07
2023-04-03T06:48:17.447Z,1008.10
2023-04-03T06:48:27.649Z,1008.11
2023-04-03T06:48:37.764Z,1008.11
2023-04-03T06:48:47.894Z,1008.11
2023-04-03T06:48:57.924Z,1008.13
2023-04-03T06:49:08.125Z,1008.15
2023-04-03T06:49:18.971Z,1008.12
2023-04-03T06:49:28.397Z,1008.13
2023-04-03T06:49:38.626Z,1008.14
2023-04-03T06:49:48.656Z,1008.12
2023-04-03T06:49:58.848Z,1008.14
2023-04-03T06:50:08.949Z,1008.10
2023-04-03T06:50:29.139Z,1008.11
2023-04-03T06:50:39.226Z,1008.08
2023-04-03T06:50:49.438Z,1008.11
2023-04-03T06:50:59.586Z,1008.09
2023-04-03T06:51:09.758Z,1008.03
2023-04-03T06:51:19.945Z,1008.03
2023-04-03T06:51:29.979Z,1008.04
2023-04-03T06:51:40.162Z,1008.00
2023-04-03T06:51:50.448Z,1008.00
2023-04-03T06:52:02.358Z,1007.98
2023-04-03T06:52:10.601Z,1008.00
2023-04-03T06:52:20.783Z,1007.98
2023-04-03T06:52:30.868Z,1008.00
2023-04-03T06:52:40.970Z,1008.01
2023-04-03T06:52:51.227Z,1007.97
2023-04-03T06:53:01.358Z,1008.00
2023-04-03T06:53:11.494Z,1007.95
2023-04-03T06:53:21.400Z,1007.98
2023-04-03T06:53:31.505Z,1008.01
2023-04-03T06:53:41.781Z,1008.00
2023-04-03T06:53:51.839Z,1008.01
2023-04-03T06:54:01.977Z,1008.00
2023-04-03T06:54:12.116Z,1008.01
2023-04-03T06:54:22.227Z,1007.99
2023-04-03T06:54:32.445Z,1008.00
2023-04-03T06:54:42.412Z,1008.00
2023-04-03T06:54:52.522Z,1007.99
2023-04-03T06:55:02.695Z,1008.01
2023-04-03T06:55:12.770Z,1008.02
2023-04-03T06:55:22.988Z,1008.03
2023-04-03T06:55:33.098Z,1007.99
2023-04-03T06:55:43.203Z,1007.98
2023-04-03T06:55:53.328Z,1008.02
2023-04-03T06:56:03.406Z,1008.00
2023-04-03T06:56:13.538Z,1008.03
2023-04-03T06:56:23.701Z,1007.95
2023-04-03T06:56:33.780Z,1008.00
2023-04-03T06:56:43.847Z,1008.03
2023-04-03T06:56:53.937Z,1007.95
2023-04-03T06:57:04.132Z,1007.96
2023-04-03T06:57:14.298Z,1007.93
2023-04-03T06:57:24.326Z,1007.93
2023-04-03T06:57:34.435Z,1007.96
2023-04-03T06:57:44.571Z,1007.90
2023-04-03T06:57:54.602Z,1007.88
2023-04-03T06:58:04.816Z,1007.90
2023-04-03T06:58:14.901Z,1007.86
2023-04-03T06:58:25.160Z,1007.81
2023-04-03T06:58:35.163Z,1007.77
2023-04-03T06:58:45.280Z,1007.76
2023-04-03T06:58:55.323Z,1007.70
2023-04-03T06:59:05.516Z,1007.73
2023-04-03T06:59:15.712Z,1007.70
2023-04-03T06:59:25.649Z,1007.67
2023-04-03T06:59:35.809Z,1007.66
2023-04-03T06:59:45.861Z,1007.59
2023-04-03T06:59:56.065Z,1007.59
2023-04-03T07:00:06.317Z,1007.63
2023-04-03T07:00:16.242Z,1007.63
2023-04-03T07:00:26.383Z,1007.64
2023-04-03T07:00:36.595Z,1007.61
2023-04-03T07:00:46.640Z,1007.58
2023-04-03T07:00:56.791Z,1007.61
2023-04-03T07:01:06.851Z,1007.62
2023-04-03T07:01:17.037Z,1007.61
2023-04-03T07:01:27.224Z,1007.57
2023-04-03T07:01:37.328Z,1007.59
2023-04-03T07:01:47.396Z,1007.63
2023-04-03T07:01:57.540Z,1007.57
2023-04-03T07:02:07.689Z,1007.56
2023-04-03T07:02:17.863Z,1007.60
2023-04-03T07:02:28.039Z,1007.62
2023-04-03T07:02:38.169Z,1007.60
2023-04-03T07:02:48.119Z,1007.58
2023-04-03T07:02:58.376Z,1007.58
2023-04-03T07:03:08.329Z,1007.61
2023-04-03T07:03:18.537Z,1007.57
2023-04-03T07:03:28.748Z,1007.60
2023-04-03T07:03:38.786Z,1007.57
2023-04-03T07:03:48.766Z,1007.62
2023-04-03T07:03:58.909Z,1007.65
2023-04-03T07:04:09.085Z,1007.65
2023-04-03T07:04:19.179Z,1007.62
2023-04-03T07:04:29.320Z,1007.64
2023-04-03T07:04:39.426Z,1007.67
2023-04-03T07:04:49.548Z,1007.67
2023-04-03T07:04:59.721Z,1007.70
2023-04-03T07:05:09.734Z,1007.73
2023-04-03T07:05:19.891Z,1007.75
2023-04-03T07:05:29.945Z,1007.74
2023-04-03T07:05:40.306Z,1007.77
2023-04-03T07:05:50.490Z,1007.80
2023-04-03T07:06:00.344Z,1007.82
2023-04-03T07:06:10.439Z,1007.82
2023-04-03T07:06:20.509Z,1007.86
2023-04-03T07:06:30.791Z,1007.93
2023-04-03T07:06:40.878Z,1007.93
2023-04-03T07:06:50.848Z,1007.90
2023-04-03T07:07:01.118Z,1007.93
2023-04-03T07:07:11.205Z,1007.94
2023-04-03T07:07:21.401Z,1007.98
2023-04-03T07:07:31.481Z,1007.99
2023-04-03T07:07:41.513Z,1008.03
2023-04-03T07:07:51.607Z,1008.03
2023-04-03T07:08:01.710Z,1008.02
2023-04-03T07:08:11.755Z,1008.04
2023-04-03T07:08:21.991Z,1008.10
2023-04-03T07:08:31.956Z,1008.09
2023-04-03T07:08:42.176Z,1008.15
2023-04-03T07:08:52.206Z,1008.10
2023-04-03T07:09:02.316Z,1008.10
2023-04-03T07:09:12.410Z,1008.15
2023-04-03T07:09:22.542Z,1008.16
2023-04-03T07:09:32.599Z,1008.16
2023-04-03T07:09:44.018Z,1008.17
2023-04-03T07:09:52.823Z,1008.19
2023-04-03T07:10:03.036Z,1008.18
2023-04-03T07:10:13.125Z,1008.18
2023-04-03T07:10:24.067Z,1008.22
2023-04-03T07:10:33.431Z,1008.18
2023-04-03T07:10:43.606Z,1008.22
2023-04-03T07:10:53.707Z,1008.20
2023-04-03T07:11:03.752Z,1008.24
2023-04-03T07:11:13.891Z,1008.22
2023-04-03T07:11:34.319Z,1008.20
2023-04-03T07:11:44.366Z,1008.21
2023-04-03T07:11:54.430Z,1008.23
2023-04-03T07:12:04.561Z,1008.19
2023-04-03T07:12:14.777Z,1008.21
2023-04-03T07:12:25.104Z,1008.18
2023-04-03T07:12:34.965Z,1008.25
2023-04-03T07:12:45.078Z,1008.19
2023-04-03T07:12:55.276Z,1008.25
2023-04-03T07:13:05.301Z,1008.21
2023-04-03T07:13:15.442Z,1008.19
2023-04-03T07:13:25.678Z,1008.18
2023-04-03T07:13:35.769Z,1008.15
2023-04-03T07:13:45.821Z,1008.11
2023-04-03T07:13:55.964Z,1008.10
2023-04-03T07:14:06.186Z,1008.17
2023-04-03T07:14:16.243Z,1008.16
2023-04-03T07:14:26.366Z,1008.16
2023-04-03T07:14:36.396Z,1008.15
2023-04-03T07:14:46.640Z,1008.14
2023-04-03T07:14:56.579Z,1008.09
2023-04-03T07:15:06.843Z,1008.16
2023-04-03T07:15:16.911Z,1008.15
2023-04-03T07:15:27.152Z,1008.15
2023-04-03T07:15:37.381Z,1008.19
2023-04-03T07:15:47.283Z,1008.18
2023-04-03T07:15:57.352Z,1008.26
2023-04-03T07:16:07.602Z,1008.22
2023-04-03T07:16:17.733Z,1008.26
2023-04-03T07:16:27.831Z,1008.30
2023-04-03T07:16:39.564Z,1008.31
2023-04-03T07:16:48.143Z,1008.31
2023-04-03T07:16:58.155Z,1008.32
2023-04-03T07:17:08.320Z,1008.35
2023-04-03T07:17:18.508Z,1008.37
2023-04-03T07:17:28.685Z,1008.38
2023-04-03T07:17:38.790Z,1008.40
2023-04-03T07:17:48.947Z,1008.43
2023-04-03T07:17:58.966Z,1008.43
2023-04-03T07:18:09.221Z,1008.43
2023-04-03T07:18:19.308Z,1008.46
2023-04-03T07:18:29.412Z,1008.42
2023-04-03T07:18:39.582Z,1008.41
2023-04-03T07:18:49.556Z,1008.39
2023-04-03T07:18:59.764Z,1008.42
2023-04-03T07:19:09.773Z,1008.37
2023-04-03T07:19:19.982Z,1008.31
2023-04-03T07:19:29.999Z,1008.33
2023-04-03T07:19:40.147Z,1008.32
2023-04-03T07:19:50.467Z,1008.28
2023-04-03T07:20:00.452Z,1008.31
2023-04-03T07:20:10.466Z,1008.29
2023-04-03T07:20:20.727Z,1008.27
2023-04-03T07:20:31.370Z,1008.22
2023-04-03T07:20:40.878Z,1008.23
2023-04-03T07:20:50.923Z,1008.23
2023-04-03T07:21:01.220Z,1008.23
2023-04-03T07:21:11.289Z,1008.19
2023-04-03T07:21:21.277Z,1008.25
2023-04-03T07:21:41.546Z,1008.23
2023-04-03T07:21:51.615Z,1008.28
2023-04-03T07:22:01.865Z,1008.25
2023-04-03T07:22:11.880Z,1008.31
2023-04-03T07:22:22.082Z,1008.32
2023-04-03T07:22:32.193Z,1008.38
2023-04-03T07:22:42.302Z,1008.44
2023-04-03T07:22:52.360Z,1008.39
2023-04-03T07:23:03.720Z,1008.43
2023-04-03T07:23:12.692Z,1008.47
2023-04-03T07:23:22.957Z,1008.51
2023-04-03T07:23:32.932Z,1008.52
2023-04-03T07:23:43.169Z,1008.52
2023-04-03T07:23:53.249Z,1008.54
2023-04-03T07:24:03.351Z,1008.55
2023-04-03T07:24:16.500Z,1008.54
2023-04-03T07:24:23.654Z,1008.52
2023-04-03T07:24:33.800Z,1008.57
2023-04-03T07:24:43.974Z,1008.50
2023-04-03T07:24:54.109Z,1008.54
2023-04-03T07:25:04.172Z,1008.50
2023-04-03T07:25:14.299Z,1008.51
